Time;durP1;ratioP1;P1;durP2;ratioP2;P2;SDS_P1;SDS_P2;PMS_P1;PMS_P2;Temp;Humidity;BMP_temperature;BMP_pressure;BME280_temperature;BME280_humidity;BME280_pressure;Samples;Min_cycle;Max_cycle;Signal;HPM_P1;HPM_P2
2023/05/05 00:00:19;;;;;;;16.08;7.53;;;;;;;12.13;69.37;95615.78;5051701;28;20472;-79
2023/05/05 00:02:45;;;;;;;17.58;7.25;;;;;;;12.15;69.90;95616.28;5050520;28;20491;-79
2023/05/05 00:05:11;;;;;;;13.10;7.60;;;;;;;11.85;69.26;95554.19;5051845;28;20079;-79
2023/05/05 00:07:36;;;;;;;14.63;7.10;;;;;;;12.23;69.51;95615.72;5052229;28;20395;-79
2023/05/05 00:10:03;;;;;;;11.57;7.10;;;;;;;11.81;69.34;95545.19;5050323;28;20519;-79
2023/05/05 00:12:28;;;;;;;15.70;8.43;;;;;;;12.05;69.87;95587.88;5052187;28;20035;-79
2023/05/05 00:14:54;;;;;;;12.88;7.57;;;;;;;12.10;69.46;95587.84;5050035;28;20116;-78
2023/05/05 00:17:19;;;;;;;12.95;7.82;;;;;;;12.10;69.51;95589.72;5050849;28;20025;-79
2023/05/05 00:19:44;;;;;;;10.57;6.88;;;;;;;12.21;69.36;95602.69;5052036;28;20400;-79
2023/05/05 00:22:10;;;;;;;21.58;8.35;;;;;;;11.78;69.62;95550.25;5050676;28;20061;-79
2023/05/05 00:24:36;;;;;;;15.25;7.50;;;;;;;12.01;69.55;95591.34;5034845;28;20108;-79
2023/05/05 00:27:02;;;;;;;16.73;7.63;;;;;;;11.93;70.28;95587.38;5047704;28;20048;-79
2023/05/05 00:29:27;;;;;;;14.35;7.30;;;;;;;11.94;70.07;95594.28;5050971;28;20056;-79
2023/05/05 00:31:53;;;;;;;12.13;7.80;;;;;;;11.94;70.26;95613.69;5032418;28;20470;-79
2023/05/05 00:34:18;;;;;;;13.23;7.65;;;;;;;11.63;70.09;95560.88;5049570;28;20039;-79
2023/05/05 00:36:44;;;;;;;14.95;7.25;;;;;;;11.75;70.26;95593.31;5050243;28;20041;-79
2023/05/05 00:39:09;;;;;;;13.60;7.20;;;;;;;11.60;70.46;95578.94;5049865;28;20446;-79
2023/05/05 00:41:35;;;;;;;15.18;7.82;;;;;;;11.72;70.68;95609.75;5051520;28;20520;-79
2023/05/05 00:44:00;;;;;;;15.10;7.50;;;;;;;11.42;70.76;95565.47;5051369;28;20086;-79
2023/05/05 00:46:29;;;;;;;11.90;7.32;;;;;;;11.42;71.12;95566.25;5049906;28;20029;-79
2023/05/05 00:48:55;;;;;;;9.85;6.93;;;;;;;11.56;70.76;95585.88;5049660;28;20549;-79
2023/05/05 00:51:21;;;;;;;13.25;7.82;;;;;;;11.64;70.90;95604.97;5051245;28;20566;-79
2023/05/05 00:53:47;;;;;;;12.02;7.03;;;;;;;11.58;71.31;95612.97;5051335;28;20438;-79
2023/05/05 00:56:14;;;;;;;11.50;7.70;;;;;;;11.56;71.11;95611.63;5035597;28;20035;-79
2023/05/05 00:58:41;;;;;;;15.50;8.05;;;;;;;11.55;70.97;95608.19;5045912;28;20563;-79
2023/05/05 01:01:08;;;;;;;20.20;8.40;;;;;;;11.53;70.60;95609.50;5051052;28;20043;-79
2023/05/05 01:03:36;;;;;;;14.02;8.30;;;;;;;11.39;70.67;95593.34;5049858;28;20566;-79
2023/05/05 01:06:37;;;;;;;16.52;7.53;;;;;;;11.35;71.10;95610.88;5049311;28;20033;-79
2023/05/05 01:09:03;;;;;;;11.88;7.93;;;;;;;11.34;71.46;95606.63;5049234;28;20044;-79
2023/05/05 01:11:54;;;;;;;16.63;8.45;;;;;;;11.14;71.30;95580.88;5050893;28;20024;-79
2023/05/05 01:14:31;;;;;;;19.60;8.98;;;;;;;11.24;71.50;95609.28;5050634;28;20033;-78
2023/05/05 01:17:03;;;;;;;16.75;8.43;;;;;;;11.05;71.62;95590.47;5048760;28;20131;-79
2023/05/05 01:20:01;;;;;;;14.48;8.35;;;;;;;11.15;71.51;95609.03;5050966;28;20123;-79
2023/05/05 01:22:35;;;;;;;12.63;8.32;;;;;;;10.98;72.19;95578.53;5049091;28;20033;-79
2023/05/05 01:25:19;;;;;;;15.88;9.23;;;;;;;11.13;72.15;95600.56;5050563;28;20060;-79
2023/05/05 01:27:59;;;;;;;20.05;9.20;;;;;;;11.00;71.93;95576.38;5049204;28;20037;-79
2023/05/05 01:30:48;;;;;;;14.15;8.95;;;;;;;11.04;72.06;95580.09;5048935;28;20390;-79
2023/05/05 01:33:21;;;;;;;26.92;9.65;;;;;;;11.04;72.07;95582.75;5034686;28;20029;-79
2023/05/05 01:35:52;;;;;;;19.67;11.13;;;;;;;10.73;73.08;95560.72;5048843;28;20029;-79
2023/05/05 01:38:26;;;;;;;20.35;11.50;;;;;;;10.81;72.46;95553.03;5013316;28;20061;-79
2023/05/05 01:41:11;;;;;;;19.05;11.07;;;;;;;10.58;73.20;95550.09;5050807;28;20033;-77
2023/05/05 01:43:37;;;;;;;18.88;11.38;;;;;;;10.74;73.81;95605.56;5052785;28;20025;-77
2023/05/05 01:46:05;;;;;;;20.60;10.88;;;;;;;10.75;73.58;95572.69;5051260;28;20047;-77
2023/05/05 01:48:32;;;;;;;17.02;10.40;;;;;;;10.76;72.49;95553.03;5053517;28;20021;-77
2023/05/05 01:51:01;;;;;;;14.88;9.63;;;;;;;10.81;72.70;95555.69;5042315;28;20029;-77
2023/05/05 01:53:27;;;;;;;17.02;10.20;;;;;;;10.64;72.57;95510.06;5047495;28;20407;-77
2023/05/05 01:55:54;;;;;;;20.55;10.40;;;;;;;10.80;72.79;95550.66;5052551;28;20131;-77
2023/05/05 01:58:21;;;;;;;22.88;9.85;;;;;;;10.67;72.35;95522.81;5052780;28;20033;-77
2023/05/05 02:00:48;;;;;;;17.35;11.00;;;;;;;11.09;72.50;95585.41;5053486;28;20075;-77
2023/05/05 02:03:15;;;;;;;21.75;9.95;;;;;;;10.97;72.42;95558.34;5052645;28;20141;-77
2023/05/05 02:05:43;;;;;;;17.40;9.05;;;;;;;10.84;72.34;95544.53;5050873;28;20048;-77
2023/05/05 02:08:10;;;;;;;17.70;10.05;;;;;;;10.84;73.24;95555.16;5034313;28;20514;-77
2023/05/05 02:10:39;;;;;;;21.08;9.98;;;;;;;10.99;73.09;95566.81;5051134;28;20029;-77
2023/05/05 02:13:07;;;;;;;17.75;9.52;;;;;;;10.51;73.74;95550.38;5052462;28;20459;-77
2023/05/05 02:15:34;;;;;;;19.90;10.18;;;;;;;10.66;73.91;95563.66;5053192;28;20033;-77
2023/05/05 02:18:01;;;;;;;19.15;10.38;;;;;;;10.22;74.90;95504.22;5050988;28;20033;-77
2023/05/05 02:20:29;;;;;;;16.38;9.48;;;;;;;10.82;73.94;95577.72;5050787;28;20033;-77
2023/05/05 02:22:55;;;;;;;15.05;9.13;;;;;;;10.72;73.38;95544.03;5051293;28;20036;-77
2023/05/05 02:25:23;;;;;;;17.83;9.68;;;;;;;10.58;74.04;95553.56;5051348;28;20048;-77
2023/05/05 02:27:54;;;;;;;16.25;9.02;;;;;;;10.23;73.90;95477.41;5052652;28;20471;-77
2023/05/05 02:30:21;;;;;;;22.80;8.95;;;;;;;10.92;73.40;95566.28;5051456;28;20487;-77
2023/05/05 02:32:54;;;;;;;21.70;8.80;;;;;;;10.95;73.35;95568.44;5053001;28;20380;-77
2023/05/05 02:35:23;;;;;;;13.40;8.70;;;;;;;10.67;74.23;95549.34;5053168;28;20087;-77
2023/05/05 02:38:01;;;;;;;15.18;8.35;;;;;;;10.43;74.33;95572.91;5084984;28;20032;-77
2023/05/05 02:40:29;;;;;;;12.27;7.88;;;;;;;9.99;75.85;95556.56;5051699;28;20025;-77
2023/05/05 02:42:57;;;;;;;11.90;8.50;;;;;;;9.67;76.55;95542.69;5051389;28;20036;-77
2023/05/05 02:45:25;;;;;;;14.70;8.20;;;;;;;10.00;76.63;95562.66;5053355;28;20108;-77
2023/05/05 02:47:51;;;;;;;13.60;7.53;;;;;;;9.66;77.31;95568.38;5051059;28;20029;-77
2023/05/05 02:50:17;;;;;;;13.48;8.13;;;;;;;9.75;77.08;95581.13;5052001;28;20040;-77
2023/05/05 02:52:43;;;;;;;10.45;7.70;;;;;;;9.72;76.80;95563.88;5039456;28;20065;-77
2023/05/05 02:55:09;;;;;;;18.30;8.32;;;;;;;9.29;77.72;95522.66;5045285;28;20465;-77
2023/05/05 02:57:37;;;;;;;10.38;7.88;;;;;;;9.64;77.60;95578.41;5052273;28;20434;-77
2023/05/05 03:00:13;;;;;;;12.95;7.45;;;;;;;9.47;78.34;95579.63;5052205;28;20029;-77
2023/05/05 03:02:43;;;;;;;11.30;7.93;;;;;;;9.63;78.42;95578.66;5052440;28;20037;-77
2023/05/05 03:05:16;;;;;;;12.27;7.85;;;;;;;9.86;77.59;95575.59;5051837;28;20499;-77
2023/05/05 03:07:54;;;;;;;19.10;7.55;;;;;;;10.05;76.14;95565.34;5050610;28;20532;-77
2023/05/05 03:10:27;;;;;;;13.00;8.70;;;;;;;9.89;76.41;95558.41;5043933;28;20029;-77
2023/05/05 03:12:56;;;;;;;14.68;7.78;;;;;;;9.93;76.65;95557.59;5030746;28;20112;-77
2023/05/05 03:15:27;;;;;;;11.35;7.07;;;;;;;9.81;76.50;95535.84;5041614;28;20450;-77
2023/05/05 03:17:53;;;;;;;10.00;7.28;;;;;;;9.87;76.43;95539.31;5050810;28;20040;-77
2023/05/05 03:20:20;;;;;;;11.63;7.68;;;;;;;9.90;75.76;95546.75;5050068;28;20534;-77
2023/05/05 03:22:46;;;;;;;14.93;7.20;;;;;;;9.98;75.35;95549.69;5050624;28;20057;-77
2023/05/05 03:25:12;;;;;;;16.30;7.57;;;;;;;10.11;74.84;95566.16;5050377;28;20080;-77
2023/05/05 03:27:37;;;;;;;12.02;6.82;;;;;;;10.24;74.55;95574.44;5052473;28;20025;-77
2023/05/05 03:30:03;;;;;;;10.68;6.75;;;;;;;10.36;73.70;95577.66;5050148;28;20037;-77
2023/05/05 03:32:29;;;;;;;9.32;6.38;;;;;;;10.19;73.58;95544.47;5051895;28;20037;-77
2023/05/05 03:34:55;;;;;;;14.32;6.72;;;;;;;10.19;72.10;95541.81;5053027;28;20494;-77
2023/05/05 03:37:20;;;;;;;14.90;7.30;;;;;;;10.01;73.38;95554.47;5054780;28;20029;-77
2023/05/05 03:39:46;;;;;;;11.05;6.75;;;;;;;10.02;73.79;95556.06;5054446;28;20535;-77
2023/05/05 03:42:11;;;;;;;11.43;6.63;;;;;;;9.82;74.01;95557.84;5053581;28;20040;-77
2023/05/05 03:44:37;;;;;;;12.35;6.75;;;;;;;10.20;73.42;95580.53;5054194;28;20480;-77
2023/05/05 03:47:02;;;;;;;13.43;6.13;;;;;;;10.19;73.62;95557.72;5053949;28;20037;-77
2023/05/05 03:49:28;;;;;;;13.25;6.53;;;;;;;10.38;73.38;95562.25;5053899;28;20083;-77
2023/05/05 03:51:53;;;;;;;15.93;7.85;;;;;;;10.25;72.41;95523.00;5054029;28;20044;-77
2023/05/05 03:54:19;;;;;;;16.38;7.60;;;;;;;10.39;72.29;95534.69;5051743;28;20033;-77
2023/05/05 03:56:44;;;;;;;12.88;7.50;;;;;;;10.56;71.87;95552.22;5053984;28;20076;-77
2023/05/05 03:59:09;;;;;;;13.45;6.75;;;;;;;10.67;71.87;95567.91;5055271;28;20029;-77
2023/05/05 04:01:35;;;;;;;26.17;10.65;;;;;;;10.76;71.72;95574.25;5050782;28;20033;-77
2023/05/05 04:04:01;;;;;;;13.18;8.10;;;;;;;10.76;71.99;95562.84;5038212;28;20128;-77
2023/05/05 04:06:26;;;;;;;20.00;8.80;;;;;;;10.77;72.32;95578.50;5051117;28;20466;-77
2023/05/05 04:08:52;;;;;;;21.17;10.90;;;;;;;10.66;72.11;95560.19;5032423;28;20044;-77
2023/05/05 04:11:18;;;;;;;18.00;8.98;;;;;;;10.70;72.73;95574.50;5031986;28;20105;-77
2023/05/05 04:13:44;;;;;;;23.48;11.00;;;;;;;10.79;72.58;95592.31;5023107;28;20029;-77
2023/05/05 04:16:10;;;;;;;23.65;11.68;;;;;;;10.61;72.47;95566.28;5018743;28;20397;-78
2023/05/05 04:18:36;;;;;;;18.23;10.25;;;;;;;10.43;72.63;95554.34;5023886;28;20029;-78
2023/05/05 04:21:01;;;;;;;16.63;9.32;;;;;;;10.60;73.23;95601.84;5025385;28;20068;-78
2023/05/05 04:23:27;;;;;;;19.42;11.30;;;;;;;10.65;73.53;95598.38;5027034;28;20042;-78
2023/05/05 04:25:52;;;;;;;20.70;10.48;;;;;;;10.52;74.10;95601.56;5032227;28;20156;-78
2023/05/05 04:28:19;;;;;;;20.60;10.63;;;;;;;10.32;74.52;95599.63;5023977;28;20066;-78
2023/05/05 04:30:45;;;;;;;19.40;10.15;;;;;;;10.20;74.07;95557.47;5022078;28;20045;-78
2023/05/05 04:33:10;;;;;;;22.95;10.63;;;;;;;10.42;74.11;95604.97;5025453;28;20411;-79
2023/05/05 04:35:36;;;;;;;23.08;11.07;;;;;;;10.27;74.31;95571.28;5032490;28;20037;-81
2023/05/05 04:38:01;;;;;;;18.90;10.70;;;;;;;10.17;74.24;95565.09;5033512;28;20152;-79
2023/05/05 04:40:27;;;;;;;35.05;12.45;;;;;;;10.43;74.42;95614.53;5030734;28;20029;-78
2023/05/05 04:42:52;;;;;;;17.38;10.48;;;;;;;10.42;74.34;95610.28;5026930;28;20363;-79
2023/05/05 04:45:18;;;;;;;21.70;10.32;;;;;;;10.32;74.69;95596.97;5035760;28;20343;-78
2023/05/05 04:47:45;;;;;;;18.88;10.63;;;;;;;10.29;73.47;95571.00;5033525;28;20041;-78
2023/05/05 04:50:11;;;;;;;19.20;10.02;;;;;;;10.44;73.73;95611.63;5028741;28;20128;-77
2023/05/05 04:52:37;;;;;;;14.05;9.35;;;;;;;10.62;72.78;95610.31;5010702;28;20568;-78
2023/05/05 04:55:03;;;;;;;14.32;9.52;;;;;;;10.50;73.24;95574.50;5026887;28;20481;-79
2023/05/05 04:57:29;;;;;;;13.00;9.50;;;;;;;10.56;72.98;95576.88;5036674;28;20029;-79
2023/05/05 04:59:55;;;;;;;17.85;8.80;;;;;;;10.37;72.71;95573.94;5039849;28;20029;-78
2023/05/05 05:02:20;;;;;;;16.90;9.43;;;;;;;10.64;72.16;95586.97;5026001;28;20060;-78
2023/05/05 05:04:45;;;;;;;21.52;9.85;;;;;;;10.86;71.97;95592.03;5037532;28;20487;-78
2023/05/05 05:07:13;;;;;;;29.88;10.45;;;;;;;10.95;71.08;95563.91;5031329;28;20061;-79
2023/05/05 05:09:39;;;;;;;14.73;9.10;;;;;;;11.19;71.06;95619.91;5041755;28;20033;-80
2023/05/05 05:12:06;;;;;;;20.55;10.15;;;;;;;10.79;70.81;95541.91;5030671;28;20139;-81
2023/05/05 05:14:37;;;;;;;13.05;9.50;;;;;;;10.96;70.20;95554.91;5029443;28;20052;-81
2023/05/05 05:17:03;;;;;;;14.13;9.18;;;;;;;10.98;70.50;95584.63;5035663;28;20062;-80
2023/05/05 05:19:28;;;;;;;24.02;10.70;;;;;;;11.29;70.14;95629.75;5034866;28;20089;-79
2023/05/05 05:21:54;;;;;;;17.00;8.73;;;;;;;11.51;70.02;95622.28;5026680;28;20040;-78
2023/05/05 05:24:19;;;;;;;18.70;7.85;;;;;;;11.49;69.16;95627.84;5032505;28;20428;-79
2023/05/05 05:26:45;;;;;;;13.68;9.02;;;;;;;11.09;70.57;95606.63;5036124;28;20053;-79
2023/05/05 05:29:10;;;;;;;17.35;9.10;;;;;;;11.43;70.30;95631.59;5033832;28;20052;-79
2023/05/05 05:31:38;;;;;;;31.00;8.85;;;;;;;11.27;69.79;95592.03;5032744;28;20504;-79
2023/05/05 05:34:04;;;;;;;15.93;8.00;;;;;;;11.48;68.72;95612.97;5028517;28;20468;-79
2023/05/05 05:36:30;;;;;;;17.48;8.70;;;;;;;11.57;68.92;95605.28;5036861;28;20061;-80
2023/05/05 05:38:55;;;;;;;17.90;8.95;;;;;;;11.74;68.95;95643.00;5032523;28;20487;-79
2023/05/05 05:41:21;;;;;;;19.63;9.25;;;;;;;11.18;68.60;95544.78;5033629;28;20033;-79
2023/05/05 05:43:46;;;;;;;23.50;9.52;;;;;;;10.13;69.97;95426.25;5036435;28;20036;-79
2023/05/05 05:46:12;;;;;;;19.85;9.27;;;;;;;11.57;69.54;95621.22;5033018;28;20042;-78
2023/05/05 05:48:38;;;;;;;18.30;9.30;;;;;;;11.51;68.58;95609.00;5034509;28;20032;-80
2023/05/05 05:51:03;;;;;;;14.55;8.68;;;;;;;11.92;68.31;95621.13;5030254;28;20075;-78
2023/05/05 05:53:29;;;;;;;12.40;6.00;;;;;;;11.57;67.13;95592.00;5040088;28;20041;-78
2023/05/05 05:55:54;;;;;;;9.60;4.10;;;;;;;11.41;66.20;95529.34;5025660;28;20055;-78
2023/05/05 05:58:19;;;;;;;9.50;4.07;;;;;;;12.00;65.44;95611.81;5029462;28;20039;-79
2023/05/05 06:00:46;;;;;;;13.48;5.93;;;;;;;12.40;64.87;95632.13;5026162;28;20040;-79
2023/05/05 06:03:12;;;;;;;14.05;5.80;;;;;;;12.29;64.15;95614.63;5023483;28;20132;-79
2023/05/05 06:05:37;;;;;;;12.90;6.22;;;;;;;12.29;64.29;95609.28;5024646;28;20048;-84
2023/05/05 06:08:03;;;;;;;12.95;6.43;;;;;;;12.52;63.51;95598.00;5030384;28;20032;-79
2023/05/05 06:10:28;;;;;;;13.75;6.40;;;;;;;12.67;63.50;95615.75;5028942;28;20121;-80
2023/05/05 06:12:54;;;;;;;14.60;7.40;;;;;;;12.46;64.12;95601.78;5015578;28;20044;-79
2023/05/05 06:15:19;;;;;;;16.77;7.32;;;;;;;12.47;63.40;95573.31;5029958;28;20047;-80
2023/05/05 06:17:44;;;;;;;17.58;9.73;;;;;;;12.72;63.30;95600.56;5027056;28;20033;-81
2023/05/05 06:20:11;;;;;;;13.93;7.85;;;;;;;12.76;63.49;95636.19;5021446;28;20255;-80
2023/05/05 06:22:37;;;;;;;10.73;6.97;;;;;;;12.80;62.83;95604.50;5024261;28;20186;-80
2023/05/05 06:25:03;;;;;;;20.00;7.70;;;;;;;13.12;62.21;95625.31;5027385;28;20049;-80
2023/05/05 06:27:28;;;;;;;19.77;8.27;;;;;;;13.11;62.82;95624.50;5031111;28;20725;-81
2023/05/05 06:29:54;;;;;;;11.25;6.10;;;;;;;13.17;62.07;95640.47;5023709;28;21043;-79
2023/05/05 06:32:19;;;;;;;13.95;6.60;;;;;;;13.20;61.75;95629.28;5031122;28;20042;-78
2023/05/05 06:34:46;;;;;;;12.02;6.25;;;;;;;13.09;61.41;95612.53;5021480;28;20714;-78
2023/05/05 06:37:11;;;;;;;11.18;5.78;;;;;;;13.43;61.06;95642.63;5021915;28;20147;-79
2023/05/05 06:39:37;;;;;;;11.88;6.00;;;;;;;13.29;61.66;95647.03;5006701;28;20204;-79
2023/05/05 06:42:03;;;;;;;18.90;7.68;;;;;;;13.16;61.87;95613.03;5024898;28;20036;-79
2023/05/05 06:44:29;;;;;;;13.40;7.38;;;;;;;13.09;61.93;95597.34;5025839;28;20040;-80
2023/05/05 06:46:55;;;;;;;9.98;6.53;;;;;;;13.39;62.05;95646.16;5032402;28;20041;-80
2023/05/05 06:49:20;;;;;;;12.30;6.72;;;;;;;13.04;62.46;95639.22;5030084;28;20342;-81
2023/05/05 06:51:46;;;;;;;11.65;6.35;;;;;;;13.02;62.07;95598.75;5024694;28;20025;-83
2023/05/05 06:54:11;;;;;;;6.65;3.92;;;;;;;13.62;61.03;95628.63;5023681;28;20078;-82
2023/05/05 06:56:37;;;;;;;10.20;5.47;;;;;;;13.71;60.40;95641.06;5030480;28;20041;-82
2023/05/05 06:59:05;;;;;;;12.65;5.25;;;;;;;13.13;60.02;95539.03;5024248;28;20029;-83
2023/05/05 07:01:31;;;;;;;14.35;5.55;;;;;;;13.66;60.36;95616.31;5029646;28;20029;-84
2023/05/05 07:03:56;;;;;;;9.05;5.85;;;;;;;13.06;59.80;95480.75;5031486;28;20471;-82
2023/05/05 07:06:22;;;;;;;11.75;6.07;;;;;;;13.68;60.44;95608.84;5028867;28;20043;-80
2023/05/05 07:08:47;;;;;;;11.82;6.07;;;;;;;13.99;59.73;95620.78;5027965;28;20033;-81
2023/05/05 07:11:13;;;;;;;12.55;4.93;;;;;;;14.07;59.18;95590.03;5036817;28;20503;-80
2023/05/05 07:13:38;;;;;;;9.25;3.30;;;;;;;14.40;59.51;95615.00;5020428;28;20068;-80
2023/05/05 07:16:04;;;;;;;4.03;2.03;;;;;;;14.36;57.66;95601.38;5018935;28;20038;-79
2023/05/05 07:18:29;;;;;;;5.40;2.38;;;;;;;14.19;57.56;95555.72;5029582;28;20068;-79
2023/05/05 07:20:55;;;;;;;4.78;2.85;;;;;;;14.43;57.87;95628.53;5020413;28;20030;-80
2023/05/05 07:23:20;;;;;;;4.30;2.85;;;;;;;14.62;58.26;95612.56;5031987;28;20029;-81
2023/05/05 07:25:46;;;;;;;5.60;2.50;;;;;;;14.76;57.95;95602.75;5030148;28;20049;-83
2023/05/05 07:28:11;;;;;;;3.78;2.60;;;;;;;14.98;57.64;95602.16;5031458;28;20036;-81
2023/05/05 07:30:36;;;;;;;4.07;2.78;;;;;;;14.81;57.06;95561.81;5034584;28;20496;-81
2023/05/05 07:33:02;;;;;;;7.95;2.60;;;;;;;14.94;55.81;95587.81;5022306;28;20507;-81
2023/05/05 07:35:28;;;;;;;15.18;3.38;;;;;;;15.24;55.41;95624.72;5037702;28;20036;-78
2023/05/05 07:37:54;;;;;;;4.95;2.92;;;;;;;15.06;54.90;95594.28;5033474;28;20044;-79
2023/05/05 07:40:19;;;;;;;3.22;2.47;;;;;;;15.02;54.56;95603.19;5035728;28;20349;-79
2023/05/05 07:42:46;;;;;;;4.28;3.03;;;;;;;15.16;55.71;95614.72;5024771;28;20029;-79
2023/05/05 07:45:11;;;;;;;9.15;3.35;;;;;;;14.84;55.91;95579.94;5033422;28;20029;-78
2023/05/05 07:47:37;;;;;;;3.70;2.42;;;;;;;14.98;55.56;95600.28;5034578;28;20110;-79
2023/05/05 07:50:03;;;;;;;3.90;2.70;;;;;;;14.65;56.40;95582.59;5032992;28;20129;-79
2023/05/05 07:52:28;;;;;;;6.38;3.05;;;;;;;14.54;55.75;95591.84;5024560;28;20056;-79
2023/05/05 07:54:54;;;;;;;5.18;2.65;;;;;;;13.80;57.40;95582.59;5027557;28;20637;-78
2023/05/05 07:57:19;;;;;;;4.68;2.78;;;;;;;13.81;57.73;95598.28;5023448;28;20033;-77
2023/05/05 07:59:45;;;;;;;7.88;3.30;;;;;;;14.07;57.11;95601.47;5024533;28;20108;-79
2023/05/05 08:02:11;;;;;;;5.63;3.38;;;;;;;14.30;56.89;95613.22;5020163;28;20073;-80
2023/05/05 08:04:38;;;;;;;7.40;3.80;;;;;;;14.43;57.80;95633.09;5031756;28;20037;-78
2023/05/05 08:07:04;;;;;;;13.48;3.70;;;;;;;14.23;57.12;95591.44;5026671;28;20033;-78
2023/05/05 08:09:29;;;;;;;6.80;3.40;;;;;;;14.31;58.41;95601.47;5025082;28;20457;-78
2023/05/05 08:11:55;;;;;;;6.18;2.85;;;;;;;14.43;57.95;95593.06;5032390;28;20499;-78
2023/05/05 08:14:20;;;;;;;7.28;4.50;;;;;;;14.26;58.05;95620.22;5033278;28;20277;-78
2023/05/05 08:16:45;;;;;;;7.65;3.33;;;;;;;14.28;58.25;95634.03;5025940;28;20826;-78
2023/05/05 08:19:11;;;;;;;7.68;3.78;;;;;;;14.35;58.67;95621.13;5028405;28;20025;-78
2023/05/05 08:21:36;;;;;;;7.43;3.38;;;;;;;13.97;58.37;95600.78;5054895;28;20037;-78
2023/05/05 08:24:02;;;;;;;12.07;3.97;;;;;;;14.26;58.06;95604.19;5022745;28;20040;-78
2023/05/05 08:26:27;;;;;;;3.83;2.70;;;;;;;14.20;58.45;95582.09;5023811;28;20053;-78
2023/05/05 08:28:55;;;;;;;7.28;3.17;;;;;;;14.27;57.76;95605.75;5030253;28;20161;-80
2023/05/05 08:31:20;;;;;;;12.52;3.80;;;;;;;13.84;59.34;95587.06;5024874;28;20597;-79
2023/05/05 08:33:46;;;;;;;6.18;3.45;;;;;;;13.83;59.01;95555.38;5029732;28;20033;-80
2023/05/05 08:36:12;;;;;;;4.20;3.28;;;;;;;13.93;58.99;95584.59;5016001;28;20040;-80
2023/05/05 08:38:38;;;;;;;8.18;3.83;;;;;;;14.07;58.83;95577.47;5018255;28;20564;-79
2023/05/05 08:41:07;;;;;;;9.50;3.88;;;;;;;14.20;58.57;95602.66;5018294;28;20029;-80
2023/05/05 08:43:33;;;;;;;14.10;4.45;;;;;;;14.21;58.45;95569.56;5025991;28;20460;-81
2023/05/05 08:45:59;;;;;;;7.22;3.65;;;;;;;14.32;59.18;95568.38;5027144;28;20056;-82
2023/05/05 08:48:27;;;;;;;6.72;4.10;;;;;;;14.66;58.75;95600.22;5023897;28;20033;-81
2023/05/05 08:50:58;;;;;;;5.55;3.42;;;;;;;14.70;58.69;95582.56;5021195;28;20606;-81
2023/05/05 08:53:40;;;;;;;5.35;3.40;;;;;;;14.89;56.99;95603.88;5031910;28;20044;-82
2023/05/05 08:56:06;;;;;;;6.88;3.53;;;;;;;14.88;57.75;95597.75;5032141;28;20503;-81
2023/05/05 08:58:36;;;;;;;11.85;4.53;;;;;;;14.87;58.10;95598.06;5028512;28;20114;-81
2023/05/05 09:01:02;;;;;;;8.25;4.03;;;;;;;14.71;57.47;95581.47;5023621;28;20554;-80
2023/05/05 09:03:28;;;;;;;8.48;3.72;;;;;;;15.10;57.75;95596.38;5018654;28;20041;-81
2023/05/05 09:05:54;;;;;;;6.88;3.30;;;;;;;15.05;57.71;95602.56;5026206;28;20077;-81
2023/05/05 09:08:20;;;;;;;15.30;3.95;;;;;;;14.91;58.32;95588.38;5024036;28;20033;-83
2023/05/05 09:10:47;;;;;;;7.07;3.60;;;;;;;14.64;58.67;95543.69;5031550;28;20028;-81
2023/05/05 09:13:13;;;;;;;5.47;2.90;;;;;;;14.43;56.98;95531.69;5027503;28;20037;-82
2023/05/05 09:15:40;;;;;;;12.48;3.92;;;;;;;14.88;57.70;95564.91;5022799;28;20052;-81
2023/05/05 09:18:10;;;;;;;3.72;2.78;;;;;;;14.93;56.15;95586.22;5021873;28;20037;-82
2023/05/05 09:20:37;;;;;;;5.53;3.35;;;;;;;14.94;56.13;95574.47;5027696;28;20033;-82
2023/05/05 09:23:11;;;;;;;4.85;3.00;;;;;;;15.14;55.82;95568.78;5055203;28;20034;-83
2023/05/05 09:25:37;;;;;;;6.30;3.00;;;;;;;15.38;56.07;95579.34;5058435;28;20065;-87
2023/05/05 09:28:11;;;;;;;5.32;3.03;;;;;;;15.37;55.72;95533.13;5028889;28;20032;-83
2023/05/05 09:30:38;;;;;;;5.18;2.80;;;;;;;15.58;54.91;95576.31;5019702;28;20088;-81
2023/05/05 09:33:04;;;;;;;7.78;3.08;;;;;;;15.52;54.19;95545.41;5020862;28;20060;-80
2023/05/05 09:35:49;;;;;;;8.60;3.72;;;;;;;15.87;55.07;95578.72;5024134;28;20508;-82
2023/05/05 09:38:14;;;;;;;6.82;3.65;;;;;;;15.86;54.97;95539.72;5020018;28;20027;-82
2023/05/05 09:40:51;;;;;;;4.50;3.10;;;;;;;15.92;53.13;95511.78;5023180;28;20030;-82
2023/05/05 09:43:19;;;;;;;8.98;4.18;;;;;;;16.73;52.95;95576.97;5057122;28;20036;-81
2023/05/05 09:45:45;;;;;;;6.68;3.45;;;;;;;17.27;53.66;95581.31;5023834;28;20034;-81
2023/05/05 09:48:24;;;;;;;8.55;3.63;;;;;;;16.93;52.39;95570.38;5018622;28;20816;-80
2023/05/05 09:50:50;;;;;;;6.97;2.80;;;;;;;17.03;50.99;95582.72;5050476;28;20059;-80
2023/05/05 09:53:16;;;;;;;4.13;2.75;;;;;;;17.15;50.11;95558.88;5022219;28;20036;-80
2023/05/05 09:55:58;;;;;;;7.07;2.70;;;;;;;16.98;49.80;95562.22;5010338;28;20060;-80
2023/05/05 09:58:25;;;;;;;;;;;;;;;17.52;48.73;95573.75;5018662;28;20098;-80
2023/05/05 10:00:52;;;;;;;6.30;3.65;;;;;;;17.61;49.70;95580.78;5022500;28;19925;-80
2023/05/05 10:03:18;;;;;;;8.23;3.40;;;;;;;17.61;48.73;95561.19;5028205;28;20037;-81
2023/05/05 10:05:50;;;;;;;7.47;3.42;;;;;;;18.10;48.28;95560.13;5027209;28;20044;-81
2023/05/05 10:08:18;;;;;;;8.90;3.92;;;;;;;18.16;48.57;95548.16;5016450;28;20248;-81
2023/05/05 10:10:52;;;;;;;5.25;3.03;;;;;;;18.88;46.54;95566.44;5005444;28;20730;-80
2023/05/05 10:13:20;;;;;;;5.10;3.40;;;;;;;19.51;45.74;95519.25;5037173;28;20476;-81
2023/05/05 10:15:49;;;;;;;13.10;4.30;;;;;;;20.15;44.40;95548.75;5017845;28;20124;-83
2023/05/05 10:18:20;;;;;;;6.53;3.70;;;;;;;20.42;42.15;95561.78;5022407;28;20034;-81
2023/05/05 10:20:51;;;;;;;6.65;3.67;;;;;;;20.22;42.56;95538.25;5019863;28;20029;-83
2023/05/05 10:23:19;;;;;;;8.85;3.60;;;;;;;20.11;42.35;95537.06;5022088;28;20029;-83
2023/05/05 10:25:53;;;;;;;7.28;4.00;;;;;;;20.63;42.17;95540.25;5017715;28;20557;-81
2023/05/05 10:28:40;;;;;;;7.50;3.28;;;;;;;21.20;42.18;95559.34;5004456;28;20061;-87
2023/05/05 10:31:22;;;;;;;11.13;3.97;;;;;;;21.03;40.45;95517.09;5018341;28;20040;-83
2023/05/05 10:34:01;;;;;;;5.78;3.03;;;;;;;21.62;40.12;95556.53;5014653;28;20038;-81
2023/05/05 10:36:28;;;;;;;4.97;2.88;;;;;;;21.73;40.30;95558.47;5019512;28;20779;-81
2023/05/05 10:38:58;;;;;;;4.55;2.60;;;;;;;20.87;39.28;95448.72;5020789;28;20527;-80
2023/05/05 10:41:25;;;;;;;6.93;3.35;;;;;;;20.19;40.85;95460.81;5032219;28;20083;-80
2023/05/05 10:43:51;;;;;;;9.50;3.30;;;;;;;20.92;41.32;95550.97;5015051;28;20037;-80
2023/05/05 10:46:17;;;;;;;4.28;3.13;;;;;;;20.66;41.71;95561.94;5024257;28;20033;-80
2023/05/05 10:48:56;;;;;;;5.13;2.88;;;;;;;21.13;40.17;95561.75;5023616;28;20036;-81
2023/05/05 10:51:52;;;;;;;3.95;3.05;;;;;;;20.87;39.94;95558.47;5021106;28;20124;-80
2023/05/05 10:54:33;;;;;;;6.50;3.42;;;;;;;20.60;39.98;95554.34;5030156;28;20033;-82
2023/05/05 10:57:03;;;;;;;3.67;2.53;;;;;;;20.40;40.67;95502.06;5030145;28;20159;-81
2023/05/05 10:59:35;;;;;;;5.35;2.67;;;;;;;21.14;39.97;95547.13;5027839;28;20092;-82
2023/05/05 11:02:16;;;;;;;4.90;2.80;;;;;;;21.25;39.99;95526.75;5023695;28;20460;-81
2023/05/05 11:04:42;;;;;;;3.95;2.28;;;;;;;21.17;40.22;95547.28;5022388;28;20420;-81
2023/05/05 11:07:07;;;;;;;7.63;2.67;;;;;;;21.14;40.10;95545.22;5029675;28;20045;-82
2023/05/05 11:09:40;;;;;;;4.88;2.85;;;;;;;20.93;40.16;95538.25;5035314;28;20082;-81
2023/05/05 11:12:07;;;;;;;5.93;2.28;;;;;;;20.08;42.73;95489.22;5019061;28;20058;-80
2023/05/05 11:14:34;;;;;;;4.55;2.28;;;;;;;20.03;42.92;95456.00;5016187;28;20113;-84
2023/05/05 11:17:00;;;;;;;3.55;2.58;;;;;;;20.38;43.15;95494.28;5023212;28;20067;-83
2023/05/05 11:19:45;;;;;;;5.60;2.90;;;;;;;20.96;41.70;95532.22;5015950;28;20052;-83
2023/05/05 11:22:11;;;;;;;9.02;2.45;;;;;;;20.80;40.85;95532.81;5019563;28;20712;-80
2023/05/05 11:24:38;;;;;;;5.05;2.13;;;;;;;20.80;40.00;95532.81;5025875;28;20072;-81
2023/05/05 11:27:04;;;;;;;4.28;2.13;;;;;;;20.49;40.36;95535.13;5026143;28;20156;-80
2023/05/05 11:30:06;;;;;;;8.70;2.72;;;;;;;20.38;41.22;95532.00;5024120;28;20731;-83
2023/05/05 11:32:32;;;;;;;3.33;2.38;;;;;;;20.67;41.47;95517.69;5029697;28;20473;-80